createdAt,value
2018-05-14T00:00:03.342Z,99.90
2018-05-14T00:02:32.220Z,99.90
2018-05-14T00:05:01.013Z,99.90
2018-05-14T00:07:29.835Z,99.90
2018-05-14T00:09:58.616Z,99.90
2018-05-14T00:12:27.448Z,99.90
2018-05-14T00:14:56.321Z,99.90
2018-05-14T00:17:25.907Z,99.90
2018-05-14T00:19:54.920Z,99.90
2018-05-14T00:22:23.744Z,99.90
2018-05-14T00:24:52.532Z,99.90
2018-05-14T00:27:21.403Z,99.90
2018-05-14T00:29:50.976Z,99.90
2018-05-14T00:32:19.949Z,99.90
2018-05-14T00:34:48.780Z,99.90
2018-05-14T00:37:18.019Z,99.90
2018-05-14T00:39:46.793Z,99.90
2018-05-14T00:42:15.621Z,99.90
2018-05-14T00:44:44.485Z,99.90
2018-05-14T00:47:13.345Z,99.90
2018-05-14T00:49:43.328Z,99.90
2018-05-14T00:52:12.100Z,99.90
2018-05-14T00:54:53.545Z,99.90
2018-05-14T00:57:22.599Z,99.90
2018-05-14T00:59:51.564Z,99.90
2018-05-14T01:02:21.359Z,99.90
2018-05-14T01:04:50.301Z,99.90
2018-05-14T01:07:19.096Z,99.90
2018-05-14T01:09:47.920Z,99.90
2018-05-14T01:12:16.652Z,99.90
2018-05-14T01:14:45.396Z,99.90
2018-05-14T01:17:14.145Z,99.90
2018-05-14T01:19:42.973Z,99.90
2018-05-14T01:22:11.696Z,99.90
2018-05-14T01:24:40.605Z,99.90
2018-05-14T01:27:10.314Z,99.90
2018-05-14T01:29:39.122Z,99.90
2018-05-14T01:32:08.671Z,99.90
2018-05-14T01:34:37.526Z,99.90
2018-05-14T01:37:06.265Z,99.90
2018-05-14T01:39:35.038Z,99.90
2018-05-14T01:42:03.778Z,99.90
2018-05-14T01:44:32.565Z,99.90
2018-05-14T01:47:02.133Z,99.90
2018-05-14T01:49:30.966Z,99.90
2018-05-14T01:52:00.455Z,99.90
2018-05-14T01:54:29.227Z,99.90
2018-05-14T01:56:58.789Z,99.90
2018-05-14T01:59:27.938Z,99.90
2018-05-14T02:01:57.058Z,99.90
2018-05-14T02:04:26.740Z,99.90
2018-05-14T02:06:56.443Z,99.90
2018-05-14T02:09:25.189Z,99.90
2018-05-14T02:11:54.161Z,99.90
2018-05-14T02:14:22.987Z,99.90
2018-05-14T02:16:51.741Z,99.90
2018-05-14T02:19:21.285Z,99.90
2018-05-14T02:21:50.055Z,99.90
2018-05-14T02:24:18.738Z,99.90
2018-05-14T02:26:48.241Z,99.90
2018-05-14T02:29:17.769Z,99.90
2018-05-14T02:31:46.604Z,99.90
2018-05-14T02:34:16.121Z,99.90
2018-05-14T02:36:44.957Z,99.90
2018-05-14T02:39:13.870Z,99.90
2018-05-14T02:41:42.625Z,99.90
2018-05-14T02:44:11.353Z,99.90
2018-05-14T02:46:40.878Z,99.90
2018-05-14T02:49:10.316Z,99.90
2018-05-14T02:51:39.072Z,99.90
2018-05-14T02:54:08.587Z,99.90
2018-05-14T02:56:38.362Z,99.90
2018-05-14T02:59:07.118Z,99.90
2018-05-14T03:01:35.993Z,99.90
2018-05-14T03:04:04.792Z,99.90
2018-05-14T03:06:33.799Z,99.90
2018-05-14T03:09:02.643Z,99.90
2018-05-14T03:11:31.773Z,99.90
2018-05-14T03:14:00.680Z,99.90
2018-05-14T03:16:29.623Z,99.90
2018-05-14T03:18:59.401Z,99.90
2018-05-14T03:21:28.913Z,99.90
2018-05-14T03:23:57.703Z,99.90
2018-05-14T03:26:26.533Z,99.90
2018-05-14T03:28:55.389Z,99.90
2018-05-14T03:31:25.168Z,99.90
2018-05-14T03:33:54.154Z,99.90
2018-05-14T03:36:22.969Z,99.90
2018-05-14T03:38:52.484Z,99.90
2018-05-14T03:41:21.302Z,99.90
2018-05-14T03:43:50.177Z,99.90
2018-05-14T03:46:19.709Z,99.90
2018-05-14T03:48:48.548Z,99.90
2018-05-14T03:51:18.105Z,99.90
2018-05-14T03:53:47.119Z,99.90
2018-05-14T03:56:16.346Z,99.90
2018-05-14T03:58:57.341Z,99.90
2018-05-14T04:01:38.317Z,99.90
2018-05-14T04:04:18.786Z,99.90
2018-05-14T04:06:47.562Z,99.90
2018-05-14T04:09:16.473Z,99.90
2018-05-14T04:11:45.388Z,99.90
2018-05-14T04:14:14.257Z,99.90
2018-05-14T04:16:43.090Z,99.90
2018-05-14T04:19:12.080Z,99.90
2018-05-14T04:21:42.069Z,99.90
2018-05-14T04:24:10.949Z,99.90
2018-05-14T04:26:39.730Z,99.90
2018-05-14T04:29:08.978Z,99.90
2018-05-14T04:31:37.903Z,99.90
2018-05-14T04:34:06.867Z,99.90
2018-05-14T04:36:35.870Z,99.90
2018-05-14T04:39:04.811Z,99.90
2018-05-14T04:41:33.536Z,99.90
2018-05-14T04:44:03.095Z,99.90
2018-05-14T04:46:31.947Z,99.90
2018-05-14T04:49:00.892Z,99.90
2018-05-14T04:51:29.750Z,99.90
2018-05-14T04:53:58.636Z,99.90
2018-05-14T04:56:27.509Z,99.90
2018-05-14T04:58:56.301Z,99.90
2018-05-14T05:01:25.097Z,99.90
2018-05-14T05:03:53.776Z,99.90
2018-05-14T05:06:22.586Z,99.90
2018-05-14T05:08:52.448Z,99.90
2018-05-14T05:11:21.395Z,99.90
2018-05-14T05:13:51.357Z,99.90
2018-05-14T05:16:20.480Z,99.90
2018-05-14T05:18:49.559Z,99.90
2018-05-14T05:21:18.498Z,99.90
2018-05-14T05:23:47.416Z,99.90
2018-05-14T05:26:16.268Z,99.90
2018-05-14T05:28:45.764Z,99.90
2018-05-14T05:31:15.637Z,99.90
2018-05-14T05:33:45.241Z,99.90
2018-05-14T05:36:14.447Z,99.90
2018-05-14T05:38:43.249Z,99.90
2018-05-14T05:41:12.097Z,99.90
2018-05-14T05:43:40.883Z,99.90
2018-05-14T05:46:10.473Z,99.90
2018-05-14T05:48:40.002Z,99.90
2018-05-14T05:51:09.219Z,99.90
2018-05-14T05:53:38.049Z,99.90
2018-05-14T05:56:07.621Z,99.90
2018-05-14T05:58:37.648Z,99.90
2018-05-14T06:01:06.572Z,99.90
2018-05-14T06:03:35.828Z,99.90
2018-05-14T06:06:04.689Z,99.90
2018-05-14T06:08:33.624Z,99.90
2018-05-14T06:11:02.506Z,99.90
2018-05-14T06:13:31.380Z,99.90
2018-05-14T06:16:00.252Z,99.90
2018-05-14T06:18:29.911Z,99.90
2018-05-14T06:20:59.043Z,99.90
2018-05-14T06:23:27.876Z,99.90
2018-05-14T06:25:56.622Z,99.90
2018-05-14T06:28:25.424Z,99.90
2018-05-14T06:30:54.332Z,99.90
2018-05-14T06:33:23.210Z,99.90
2018-05-14T06:35:52.349Z,99.90
2018-05-14T06:38:21.981Z,99.90
2018-05-14T06:40:50.893Z,99.90
2018-05-14T06:43:20.213Z,99.90
2018-05-14T06:45:49.355Z,99.90
2018-05-14T06:48:18.226Z,99.90
2018-05-14T06:50:47.252Z,99.90
2018-05-14T06:53:16.289Z,98.40
2018-05-14T06:55:45.261Z,97.60
2018-05-14T06:58:14.161Z,95.70
2018-05-14T07:00:44.173Z,95.90
2018-05-14T07:03:13.730Z,95.20
2018-05-14T07:05:42.709Z,95.10
2018-05-14T07:08:11.546Z,96.30
2018-05-14T07:10:40.365Z,95.80
2018-05-14T07:13:09.426Z,90.40
2018-05-14T07:15:38.206Z,84.90
2018-05-14T07:18:06.939Z,90.50
2018-05-14T07:20:35.845Z,92.70
2018-05-14T07:23:04.729Z,87.20
2018-05-14T07:25:33.597Z,85.70
2018-05-14T07:28:04.371Z,82.10
2018-05-14T07:30:33.534Z,82.00
2018-05-14T07:33:02.600Z,68.50
2018-05-14T07:35:32.239Z,78.80
2018-05-14T07:38:01.276Z,78.70
2018-05-14T07:40:30.388Z,68.50
2018-05-14T07:42:59.280Z,64.90
2018-05-14T07:45:30.132Z,63.70
2018-05-14T07:47:59.399Z,63.80
2018-05-14T07:50:28.240Z,77.70
2018-05-14T07:52:57.082Z,63.70
2018-05-14T07:55:26.901Z,64.30
2018-05-14T07:57:56.095Z,66.70
2018-05-14T08:00:25.324Z,70.70
2018-05-14T08:02:54.800Z,64.90
2018-05-14T08:05:23.861Z,64.80
2018-05-14T08:07:52.660Z,71.10
2018-05-14T08:10:21.517Z,63.60
2018-05-14T08:12:50.383Z,68.40
2018-05-14T08:15:19.208Z,62.80
2018-05-14T08:17:48.378Z,62.40
2018-05-14T08:20:17.209Z,60.80
2018-05-14T08:22:46.133Z,56.90
2018-05-14T08:25:15.727Z,59.70
2018-05-14T08:27:45.457Z,57.30
2018-05-14T08:30:14.334Z,57.20
2018-05-14T08:32:44.146Z,53.00
2018-05-14T08:35:13.738Z,56.10
2018-05-14T08:37:42.828Z,56.10
2018-05-14T08:40:11.826Z,55.60
2018-05-14T08:42:40.740Z,57.20
2018-05-14T08:45:10.354Z,58.50
2018-05-14T08:47:39.392Z,58.40
2018-05-14T08:50:08.300Z,53.90
2018-05-14T08:52:37.112Z,57.30
2018-05-14T08:55:06.197Z,54.70
2018-05-14T08:57:35.745Z,52.30
2018-05-14T09:00:04.740Z,52.30
2018-05-14T09:02:33.977Z,51.20
2018-05-14T09:05:02.900Z,51.00
2018-05-14T09:07:32.085Z,45.00
2018-05-14T09:10:00.994Z,40.60
2018-05-14T09:12:29.939Z,44.30
2018-05-14T09:14:58.909Z,41.80
2018-05-14T09:17:28.213Z,43.90
2018-05-14T09:19:57.730Z,42.50
2018-05-14T09:22:27.361Z,41.60
2018-05-14T09:24:56.152Z,41.60
2018-05-14T09:27:25.081Z,41.80
2018-05-14T09:29:54.033Z,43.50
2018-05-14T09:32:22.898Z,44.80
2018-05-14T09:34:51.845Z,43.20
2018-05-14T09:37:21.736Z,40.60
2018-05-14T09:39:50.563Z,40.60
2018-05-14T09:42:19.464Z,43.40
2018-05-14T09:44:48.224Z,40.40
2018-05-14T09:47:17.904Z,39.80
2018-05-14T09:49:47.135Z,39.70
2018-05-14T09:52:16.767Z,39.30
2018-05-14T09:54:50.363Z,39.20
2018-05-14T09:57:20.691Z,38.30
2018-05-14T09:59:50.406Z,36.70
2018-05-14T10:02:20.328Z,38.20
2018-05-14T10:04:49.570Z,42.00
2018-05-14T10:07:18.840Z,40.40
2018-05-14T10:09:49.657Z,41.80
2018-05-14T10:12:20.034Z,35.20
2018-05-14T10:14:49.380Z,35.20
2018-05-14T10:17:19.961Z,34.10
2018-05-14T10:19:50.284Z,34.10
2018-05-14T10:22:20.236Z,36.10
2018-05-14T10:24:50.300Z,37.30
2018-05-14T10:27:19.995Z,37.30
2018-05-14T10:29:51.332Z,35.60
2018-05-14T10:32:20.717Z,35.00
2018-05-14T10:34:50.679Z,40.20
2018-05-14T10:37:20.259Z,36.60
2018-05-14T10:39:49.980Z,36.50
2018-05-14T10:42:19.539Z,31.80
2018-05-14T10:44:48.388Z,31.70
2018-05-14T10:47:17.145Z,36.60
2018-05-14T10:49:46.903Z,37.00
2018-05-14T10:52:15.746Z,37.10
2018-05-14T10:54:44.791Z,37.70
2018-05-14T10:57:13.581Z,38.00
2018-05-14T10:59:42.366Z,38.00
2018-05-14T11:02:11.379Z,37.60
2018-05-14T11:04:41.182Z,38.50
2018-05-14T11:07:10.082Z,38.60
2018-05-14T11:09:39.841Z,35.80
2018-05-14T11:12:08.636Z,35.70
2018-05-14T11:14:37.522Z,33.90
2018-05-14T11:17:06.734Z,35.50
2018-05-14T11:19:35.734Z,33.80
2018-05-14T11:22:04.561Z,37.70
2018-05-14T11:24:33.651Z,33.90
2018-05-14T11:27:02.546Z,31.40
2018-05-14T11:29:31.734Z,29.80
2018-05-14T11:32:01.658Z,30.60
2018-05-14T11:34:30.597Z,32.50
2018-05-14T11:36:59.602Z,33.50
2018-05-14T11:39:28.380Z,32.90
2018-05-14T11:41:57.344Z,34.40
2018-05-14T11:44:26.399Z,34.70
2018-05-14T11:46:56.071Z,32.00
2018-05-14T11:49:24.849Z,31.90
2018-05-14T11:51:54.381Z,34.60
2018-05-14T11:54:23.923Z,33.60
2018-05-14T11:56:53.556Z,32.00
2018-05-14T11:59:22.420Z,32.00
2018-05-14T12:01:51.988Z,31.30
2018-05-14T12:04:21.573Z,30.90
2018-05-14T12:06:51.185Z,33.20
2018-05-14T12:09:20.844Z,35.70
2018-05-14T12:11:49.818Z,35.70
2018-05-14T12:14:18.884Z,32.00
2018-05-14T12:16:48.505Z,33.90
2018-05-14T12:19:17.382Z,34.40
2018-05-14T12:21:46.140Z,33.50
2018-05-14T12:24:15.114Z,34.40
2018-05-14T12:26:44.748Z,35.00
2018-05-14T12:29:13.659Z,34.70
2018-05-14T12:31:43.219Z,37.30
2018-05-14T12:34:11.993Z,37.30
2018-05-14T12:36:40.862Z,40.40
2018-05-14T12:39:09.806Z,37.50
2018-05-14T12:41:38.647Z,39.30
2018-05-14T12:44:07.667Z,39.60
2018-05-14T12:46:36.366Z,39.70
2018-05-14T12:49:05.420Z,38.90
2018-05-14T12:51:34.684Z,36.50
2018-05-14T12:54:03.518Z,39.40
2018-05-14T12:56:32.437Z,42.20
2018-05-14T12:59:01.557Z,40.10
2018-05-14T13:01:31.085Z,39.30
2018-05-14T13:04:00.585Z,39.80
2018-05-14T13:06:29.698Z,39.80
2018-05-14T13:08:58.629Z,39.80
2018-05-14T13:11:27.590Z,39.20
2018-05-14T13:13:56.666Z,38.50
2018-05-14T13:16:26.435Z,37.50
2018-05-14T13:18:55.710Z,37.40
2018-05-14T13:21:24.585Z,36.50
2018-05-14T13:23:53.397Z,38.70
2018-05-14T13:26:22.393Z,40.40
2018-05-14T13:28:52.062Z,37.50
2018-05-14T13:31:21.176Z,37.60
2018-05-14T13:33:50.106Z,36.60
2018-05-14T13:36:19.681Z,41.70
2018-05-14T13:38:48.500Z,41.70
2018-05-14T13:41:17.187Z,40.20
2018-05-14T13:43:46.121Z,40.80
2018-05-14T13:46:15.112Z,38.70
2018-05-14T13:48:43.860Z,36.90
2018-05-14T13:51:13.921Z,37.70
2018-05-14T13:53:43.757Z,38.00
2018-05-14T13:56:12.528Z,37.90
2018-05-14T13:58:41.592Z,38.70
2018-05-14T14:01:10.444Z,38.00
2018-05-14T14:03:39.356Z,38.70
2018-05-14T14:06:08.306Z,37.40
2018-05-14T14:08:37.380Z,38.60
2018-05-14T14:11:06.261Z,39.00
2018-05-14T14:13:35.830Z,37.70
2018-05-14T14:16:05.338Z,38.50
2018-05-14T14:18:34.105Z,39.50
2018-05-14T14:21:02.969Z,39.30
2018-05-14T14:23:31.927Z,39.00
2018-05-14T14:26:01.479Z,38.20
2018-05-14T14:28:30.474Z,38.10
2018-05-14T14:30:59.280Z,38.10
2018-05-14T14:33:28.192Z,38.50
2018-05-14T14:35:57.019Z,39.50
2018-05-14T14:38:26.718Z,41.80
2018-05-14T14:40:55.779Z,41.80
2018-05-14T14:43:24.770Z,40.40
2018-05-14T14:45:53.970Z,40.20
2018-05-14T14:48:23.706Z,38.00
2018-05-14T14:50:53.086Z,38.00
2018-05-14T14:53:22.006Z,40.60
2018-05-14T14:55:51.042Z,39.00
2018-05-14T14:58:19.845Z,39.00
2018-05-14T15:00:48.964Z,39.70
2018-05-14T15:03:18.181Z,39.90
2018-05-14T15:05:47.734Z,38.20
2018-05-14T15:08:16.493Z,38.20
2018-05-14T15:10:46.194Z,40.30
2018-05-14T15:13:15.691Z,39.60
2018-05-14T15:15:44.654Z,39.40
2018-05-14T15:18:13.604Z,37.30
2018-05-14T15:20:42.501Z,37.80
2018-05-14T15:23:11.394Z,37.40
2018-05-14T15:25:41.222Z,38.30
2018-05-14T15:28:10.078Z,38.30
2018-05-14T15:30:39.600Z,37.70
2018-05-14T15:33:08.342Z,37.70
2018-05-14T15:35:37.108Z,40.30
2018-05-14T15:38:06.017Z,41.10
2018-05-14T15:40:35.775Z,39.10
2018-05-14T15:43:04.615Z,39.30
2018-05-14T15:45:34.313Z,39.40
2018-05-14T15:48:03.143Z,39.50
2018-05-14T15:50:31.987Z,38.90
2018-05-14T15:53:01.653Z,41.60
2018-05-14T15:55:30.921Z,41.50
2018-05-14T15:57:59.737Z,40.90
2018-05-14T16:00:28.525Z,40.40
2018-05-14T16:02:57.353Z,39.60
2018-05-14T16:05:26.465Z,40.90
2018-05-14T16:20:55.583Z,41.30
2018-05-14T16:23:25.188Z,51.80
2018-05-14T16:25:54.232Z,51.80
2018-05-14T16:28:23.076Z,52.10
2018-05-14T16:30:51.905Z,53.80
2018-05-14T16:33:21.590Z,56.10
2018-05-14T16:35:50.427Z,56.10
2018-05-14T16:38:20.386Z,57.50
2018-05-14T16:40:49.968Z,57.50
2018-05-14T16:43:18.689Z,57.50
2018-05-14T16:45:47.698Z,58.80
2018-05-14T16:48:16.968Z,62.10
2018-05-14T16:50:46.842Z,65.80
2018-05-14T16:53:16.477Z,76.20
2018-05-14T16:55:46.357Z,76.20
2018-05-14T16:58:15.368Z,84.10
2018-05-14T17:00:44.265Z,76.80
2018-05-14T17:03:12.984Z,84.70
2018-05-14T17:05:43.139Z,92.80
2018-05-14T17:08:11.930Z,92.80
2018-05-14T17:10:40.795Z,92.40
2018-05-14T17:13:09.853Z,92.70
2018-05-14T17:15:39.990Z,95.50
2018-05-14T17:18:09.633Z,97.50
2018-05-14T17:20:39.113Z,97.50
2018-05-14T17:23:08.669Z,98.90
2018-05-14T17:25:37.501Z,99.00
2018-05-14T17:28:07.018Z,99.90
2018-05-14T17:30:37.024Z,99.90
2018-05-14T17:33:06.112Z,99.90
2018-05-14T17:35:36.913Z,99.90
2018-05-14T17:38:05.780Z,99.90
2018-05-14T17:40:34.645Z,99.90
2018-05-14T17:43:03.571Z,99.90
2018-05-14T17:45:32.760Z,99.90
2018-05-14T17:48:01.742Z,99.90
2018-05-14T17:50:30.841Z,99.90
2018-05-14T17:52:59.565Z,99.90
2018-05-14T17:55:28.365Z,99.90
2018-05-14T17:57:57.979Z,99.90
2018-05-14T18:00:27.076Z,99.90
2018-05-14T18:02:55.939Z,99.90
2018-05-14T18:05:24.755Z,99.90
2018-05-14T18:07:53.568Z,99.90
2018-05-14T18:10:22.336Z,99.90
2018-05-14T18:12:51.842Z,99.90
2018-05-14T18:15:21.793Z,99.90
2018-05-14T18:17:50.886Z,99.90
2018-05-14T18:20:25.601Z,99.90
2018-05-14T18:22:54.836Z,99.90
2018-05-14T18:25:32.590Z,99.90
2018-05-14T18:28:01.541Z,99.90
2018-05-14T18:30:36.742Z,99.90
2018-05-14T18:33:11.502Z,99.90
2018-05-14T18:35:44.396Z,99.90
2018-05-14T18:38:14.719Z,99.90
2018-05-14T18:40:43.914Z,99.90
2018-05-14T18:43:12.765Z,99.90
2018-05-14T18:45:41.570Z,99.90
2018-05-14T18:48:10.427Z,99.90
2018-05-14T18:50:39.235Z,99.90
2018-05-14T18:53:09.870Z,99.90
2018-05-14T18:55:38.609Z,99.90
2018-05-14T18:58:08.189Z,99.90
2018-05-14T19:00:37.198Z,99.90
2018-05-14T19:03:06.007Z,99.90
2018-05-14T19:05:35.574Z,99.90
2018-05-14T19:08:05.233Z,99.90
2018-05-14T19:10:39.503Z,99.90
2018-05-14T19:13:09.082Z,99.90
2018-05-14T19:15:44.289Z,99.90
2018-05-14T19:18:14.096Z,99.90
2018-05-14T19:20:43.259Z,99.90
2018-05-14T19:23:18.505Z,99.90
2018-05-14T19:25:47.166Z,99.90
2018-05-14T19:28:21.573Z,99.90
2018-05-14T19:30:50.572Z,99.90
2018-05-14T19:33:24.938Z,99.90
2018-05-14T19:35:59.196Z,99.90
2018-05-14T19:38:28.094Z,99.90
2018-05-14T19:40:56.939Z,99.90
2018-05-14T19:43:26.021Z,99.90
2018-05-14T19:45:54.974Z,99.90
2018-05-14T19:48:23.836Z,99.90
2018-05-14T19:50:52.842Z,99.90
2018-05-14T19:53:21.675Z,99.90
2018-05-14T19:55:50.458Z,99.90
2018-05-14T19:58:19.275Z,99.90
2018-05-14T20:00:48.909Z,99.90
2018-05-14T20:03:17.864Z,99.90
2018-05-14T20:05:46.722Z,99.90
2018-05-14T20:08:15.652Z,99.90
2018-05-14T20:10:45.254Z,99.90
2018-05-14T20:13:14.768Z,99.90
2018-05-14T20:15:43.545Z,99.90
2018-05-14T20:18:12.388Z,99.90
2018-05-14T20:20:41.619Z,99.90
2018-05-14T20:23:10.398Z,99.90
2018-05-14T20:25:39.506Z,99.90
2018-05-14T20:28:08.492Z,99.90
2018-05-14T20:30:43.038Z,99.90
2018-05-14T20:33:13.582Z,99.90
2018-05-14T20:35:42.333Z,99.90
2018-05-14T20:38:11.973Z,99.90
2018-05-14T20:40:46.758Z,99.90
2018-05-14T20:43:15.752Z,99.90
2018-05-14T20:45:44.495Z,99.90
2018-05-14T20:48:14.168Z,99.90
2018-05-14T20:50:43.056Z,99.90
2018-05-14T20:53:11.809Z,99.90
2018-05-14T20:55:40.573Z,99.90
2018-05-14T20:58:09.350Z,99.90
2018-05-14T21:00:38.205Z,99.90
2018-05-14T21:03:06.970Z,99.90
2018-05-14T21:05:35.955Z,99.90
2018-05-14T21:08:04.822Z,99.90
2018-05-14T21:10:33.509Z,99.90
2018-05-14T21:13:02.300Z,99.90
2018-05-14T21:15:31.796Z,99.90
2018-05-14T21:18:01.423Z,99.90
2018-05-14T21:20:30.234Z,99.90
2018-05-14T21:22:58.992Z,99.90
2018-05-14T21:25:27.836Z,99.90
2018-05-14T21:27:56.927Z,99.90
2018-05-14T21:30:25.758Z,99.90
2018-05-14T21:32:55.732Z,99.90
2018-05-14T21:35:24.676Z,99.90
2018-05-14T21:37:53.515Z,99.90
2018-05-14T21:40:22.496Z,99.90
2018-05-14T21:42:51.300Z,99.90
2018-05-14T21:45:20.134Z,99.90
2018-05-14T21:47:48.935Z,99.90
2018-05-14T21:50:17.715Z,99.90
2018-05-14T21:52:46.846Z,99.90
2018-05-14T21:55:15.585Z,99.90
2018-05-14T21:57:44.522Z,99.90
2018-05-14T22:00:16.759Z,99.90
2018-05-14T22:02:46.728Z,99.90
2018-05-14T22:05:16.338Z,99.90
2018-05-14T22:07:45.153Z,99.90
2018-05-14T22:10:14.088Z,99.90
2018-05-14T22:12:43.540Z,99.90
2018-05-14T22:15:12.495Z,99.90
2018-05-14T22:17:42.053Z,99.90
2018-05-14T22:20:11.726Z,99.90
2018-05-14T22:22:40.758Z,99.90
2018-05-14T22:25:10.024Z,99.90
2018-05-14T22:27:39.637Z,99.90
2018-05-14T22:30:08.537Z,99.90
2018-05-14T22:32:37.408Z,99.90
2018-05-14T22:35:06.204Z,99.90
2018-05-14T22:37:35.080Z,99.90
2018-05-14T22:40:07.449Z,99.90
2018-05-14T22:42:36.232Z,99.90
2018-05-14T22:45:05.101Z,99.90
2018-05-14T22:47:34.013Z,99.90
2018-05-14T22:50:03.001Z,99.90
2018-05-14T22:52:31.869Z,99.90
2018-05-14T22:55:00.696Z,99.90
2018-05-14T22:57:29.459Z,99.90
2018-05-14T22:59:58.631Z,99.90
2018-05-14T23:02:27.628Z,99.90
2018-05-14T23:04:56.773Z,99.90
2018-05-14T23:07:26.371Z,99.90
2018-05-14T23:09:55.207Z,99.90
2018-05-14T23:12:24.914Z,99.90
2018-05-14T23:14:54.490Z,99.90
2018-05-14T23:17:23.501Z,99.90
2018-05-14T23:19:52.531Z,99.90
2018-05-14T23:22:22.237Z,99.90
2018-05-14T23:24:51.028Z,99.90
2018-05-14T23:27:19.721Z,99.90
2018-05-14T23:29:48.625Z,99.90
2018-05-14T23:32:17.456Z,99.90
2018-05-14T23:34:46.346Z,99.90
2018-05-14T23:37:15.542Z,99.90
2018-05-14T23:39:44.610Z,99.90
2018-05-14T23:42:13.446Z,99.90
2018-05-14T23:44:42.357Z,99.90
2018-05-14T23:47:11.909Z,99.90
2018-05-14T23:49:40.834Z,99.90
2018-05-14T23:52:09.630Z,99.90
2018-05-14T23:54:38.650Z,99.90
2018-05-14T23:57:08.165Z,99.90
2018-05-14T23:59:36.949Z,99.90
